createdAt,value
2018-12-25T00:01:23.911Z,8.00
2018-12-25T00:03:55.376Z,7.07
2018-12-25T00:06:27.090Z,8.10
2018-12-25T00:08:58.423Z,7.90
2018-12-25T00:12:56.541Z,7.37
2018-12-25T00:15:28.074Z,7.60
2018-12-25T00:17:59.659Z,8.30
2018-12-25T00:20:33.327Z,8.50
2018-12-25T00:23:04.184Z,7.40
2018-12-25T00:25:35.738Z,8.03
2018-12-25T00:28:07.255Z,8.23
2018-12-25T00:30:38.709Z,7.70
2018-12-25T00:33:09.972Z,6.70
2018-12-25T00:35:41.359Z,7.93
2018-12-25T00:38:12.651Z,7.70
2018-12-25T00:40:43.978Z,7.43
2018-12-25T00:43:15.312Z,7.90
2018-12-25T00:45:46.599Z,6.67
2018-12-25T00:48:17.843Z,6.43
2018-12-25T00:50:49.227Z,8.23
2018-12-25T00:53:20.662Z,7.07
2018-12-25T00:55:51.981Z,8.23
2018-12-25T00:58:23.290Z,7.30
2018-12-25T01:00:54.597Z,7.27
2018-12-25T01:03:26.236Z,11.60
2018-12-25T01:05:57.584Z,6.40
2018-12-25T01:08:28.852Z,7.10
2018-12-25T01:11:00.190Z,7.17
2018-12-25T01:13:31.551Z,7.90
2018-12-25T01:16:02.905Z,7.60
2018-12-25T01:18:34.214Z,6.70
2018-12-25T01:21:05.492Z,7.60
2018-12-25T01:23:36.893Z,7.20
2018-12-25T01:26:08.170Z,7.20
2018-12-25T01:28:39.437Z,7.07
2018-12-25T01:31:10.718Z,7.07
2018-12-25T01:33:41.987Z,7.33
2018-12-25T01:36:13.328Z,8.17
2018-12-25T01:38:44.566Z,7.10
2018-12-25T01:41:15.879Z,7.80
2018-12-25T01:43:47.190Z,7.23
2018-12-25T01:46:18.460Z,6.73
2018-12-25T01:48:49.707Z,7.37
2018-12-25T01:51:21.007Z,7.40
2018-12-25T01:53:53.820Z,7.60
2018-12-25T01:56:25.164Z,7.43
2018-12-25T01:58:56.398Z,7.93
2018-12-25T02:01:27.713Z,7.23
2018-12-25T02:03:58.968Z,7.40
2018-12-25T02:06:30.249Z,7.80
2018-12-25T02:09:01.563Z,6.80
2018-12-25T02:11:32.806Z,6.77
2018-12-25T02:14:04.064Z,6.53
2018-12-25T02:16:35.367Z,7.67
2018-12-25T02:19:06.642Z,6.87
2018-12-25T02:21:37.972Z,7.73
2018-12-25T02:24:09.257Z,7.63
2018-12-25T02:26:40.518Z,7.83
2018-12-25T02:29:11.792Z,6.37
2018-12-25T02:31:43.112Z,8.17
2018-12-25T02:34:14.337Z,7.73
2018-12-25T02:36:45.623Z,8.30
2018-12-25T02:39:16.851Z,7.40
2018-12-25T02:41:48.010Z,7.40
2018-12-25T02:44:19.329Z,8.33
2018-12-25T02:46:50.641Z,8.30
2018-12-25T02:49:21.910Z,7.93
2018-12-25T02:51:53.147Z,7.43
2018-12-25T02:54:26.693Z,8.50
2018-12-25T02:56:57.745Z,7.37
2018-12-25T02:59:29.035Z,7.23
2018-12-25T03:02:00.251Z,8.67
2018-12-25T03:04:31.535Z,8.20
2018-12-25T03:07:02.796Z,8.47
2018-12-25T03:09:34.093Z,8.30
2018-12-25T03:12:05.433Z,8.10
2018-12-25T03:14:36.692Z,8.30
2018-12-25T03:17:07.855Z,8.40
2018-12-25T03:19:39.143Z,7.73
2018-12-25T03:22:10.411Z,7.63
2018-12-25T03:24:41.673Z,7.07
2018-12-25T03:27:12.946Z,8.23
2018-12-25T03:29:44.176Z,8.57
2018-12-25T03:32:15.430Z,8.50
2018-12-25T03:34:46.612Z,9.00
2018-12-25T03:37:17.873Z,8.97
2018-12-25T03:39:49.138Z,9.80
2018-12-25T03:42:20.432Z,8.50
2018-12-25T03:44:51.696Z,8.30
2018-12-25T03:47:22.850Z,8.30
2018-12-25T03:49:54.049Z,8.40
2018-12-25T03:52:25.245Z,8.87
2018-12-25T03:54:56.531Z,8.83
2018-12-25T03:57:27.897Z,8.90
2018-12-25T03:59:59.135Z,7.53
2018-12-25T04:02:30.321Z,9.00
2018-12-25T04:05:01.622Z,8.10
2018-12-25T04:07:32.847Z,7.83
2018-12-25T04:10:04.172Z,8.90
2018-12-25T04:12:35.453Z,8.30
2018-12-25T04:15:06.939Z,10.00
2018-12-25T04:17:38.121Z,8.23
2018-12-25T04:20:19.550Z,9.37
2018-12-25T04:22:43.013Z,8.50
2018-12-25T04:25:14.247Z,9.23
2018-12-25T04:27:45.630Z,8.30
2018-12-25T04:32:49.568Z,9.27
2018-12-25T04:35:20.800Z,9.13
2018-12-25T04:37:52.156Z,7.80
2018-12-25T04:40:23.407Z,9.30
2018-12-25T04:42:54.536Z,8.73
2018-12-25T04:45:25.736Z,8.53
2018-12-25T04:47:56.934Z,8.57
2018-12-25T04:50:29.476Z,9.80
2018-12-25T04:53:01.116Z,8.40
2018-12-25T04:55:32.371Z,8.30
2018-12-25T04:58:03.614Z,7.40
2018-12-25T05:00:34.877Z,8.50
2018-12-25T05:03:06.127Z,8.90
2018-12-25T05:05:37.378Z,8.70
2018-12-25T05:08:08.642Z,9.07
2018-12-25T05:10:39.871Z,7.97
2018-12-25T05:13:11.105Z,9.47
2018-12-25T05:15:42.354Z,9.80
2018-12-25T05:18:13.650Z,8.40
2018-12-25T05:20:44.906Z,8.63
2018-12-25T05:23:16.158Z,8.00
2018-12-25T05:25:47.438Z,8.10
2018-12-25T05:28:18.683Z,7.70
2018-12-25T05:30:49.935Z,9.30
2018-12-25T05:33:21.219Z,10.47
2018-12-25T05:35:52.388Z,10.00
2018-12-25T05:38:23.646Z,9.63
2018-12-25T05:40:54.898Z,9.03
2018-12-25T05:43:26.144Z,8.87
2018-12-25T05:45:57.347Z,9.10
2018-12-25T05:48:28.553Z,9.37
2018-12-25T05:50:59.816Z,9.33
2018-12-25T05:53:31.134Z,7.97
2018-12-25T05:56:02.339Z,9.23
2018-12-25T05:58:33.607Z,9.60
2018-12-25T06:01:04.867Z,8.30
2018-12-25T06:03:36.125Z,8.67
2018-12-25T06:06:07.368Z,9.60
2018-12-25T06:08:38.526Z,9.43
2018-12-25T06:11:09.815Z,10.60
2018-12-25T06:13:41.056Z,9.60
2018-12-25T06:16:12.263Z,9.83
2018-12-25T06:18:43.394Z,8.93
2018-12-25T06:21:14.706Z,9.10
2018-12-25T06:23:45.943Z,8.97
2018-12-25T06:26:17.221Z,11.70
2018-12-25T06:28:48.513Z,9.43
2018-12-25T06:31:21.420Z,9.83
2018-12-25T06:33:52.886Z,9.00
2018-12-25T06:36:24.059Z,10.33
2018-12-25T06:38:55.334Z,9.87
2018-12-25T06:41:26.598Z,10.37
2018-12-25T06:43:57.791Z,10.13
2018-12-25T06:46:29.011Z,10.90
2018-12-25T06:49:00.276Z,11.10
2018-12-25T06:51:31.542Z,10.80
2018-12-25T06:54:02.774Z,10.07
2018-12-25T06:56:34.166Z,10.70
2018-12-25T06:59:05.461Z,9.63
2018-12-25T07:01:36.698Z,11.10
2018-12-25T07:04:07.999Z,10.57
2018-12-25T07:06:39.226Z,10.73
2018-12-25T07:09:10.512Z,10.20
2018-12-25T07:11:41.792Z,10.00
2018-12-25T07:14:13.019Z,10.73
2018-12-25T07:16:44.380Z,11.63
2018-12-25T07:19:15.603Z,10.57
2018-12-25T07:21:47.186Z,10.87
2018-12-25T07:24:20.388Z,12.30
2018-12-25T07:26:51.404Z,12.13
2018-12-25T07:29:26.464Z,11.10
2018-12-25T07:31:57.654Z,10.00
2018-12-25T07:34:28.906Z,12.47
2018-12-25T07:37:00.228Z,11.23
2018-12-25T07:39:31.505Z,11.33
2018-12-25T07:42:02.737Z,10.43
2018-12-25T07:44:33.941Z,11.10
2018-12-25T07:47:05.229Z,9.57
2018-12-25T07:49:36.455Z,12.20
2018-12-25T07:54:36.770Z,10.63
2018-12-25T07:57:08.440Z,10.93
2018-12-25T07:59:39.712Z,10.00
2018-12-25T08:02:11.118Z,11.03
2018-12-25T08:04:42.382Z,11.40
2018-12-25T08:07:13.626Z,11.57
2018-12-25T08:09:45.040Z,11.30
2018-12-25T08:12:16.339Z,12.17
2018-12-25T08:14:47.564Z,11.73
2018-12-25T08:17:18.814Z,11.40
2018-12-25T08:19:50.005Z,12.03
2018-12-25T08:22:21.304Z,12.90
2018-12-25T08:24:52.627Z,12.63
2018-12-25T08:27:23.916Z,12.23
2018-12-25T08:29:55.241Z,11.83
2018-12-25T08:32:26.571Z,11.40
2018-12-25T08:34:57.934Z,12.07
2018-12-25T08:37:29.246Z,12.00
2018-12-25T08:40:00.626Z,11.30
2018-12-25T08:42:31.866Z,13.47
2018-12-25T08:45:03.235Z,12.03
2018-12-25T08:47:34.524Z,11.27
2018-12-25T08:50:08.320Z,11.53
2018-12-25T08:52:39.470Z,11.47
2018-12-25T08:55:10.859Z,11.13
2018-12-25T08:57:42.202Z,11.10
2018-12-25T09:00:15.212Z,12.10
2018-12-25T09:02:46.510Z,10.87
2018-12-25T09:05:17.772Z,11.17
2018-12-25T09:07:49.025Z,12.17
2018-12-25T09:10:20.349Z,12.37
2018-12-25T09:12:51.608Z,11.57
2018-12-25T09:15:22.908Z,11.57
2018-12-25T09:17:54.159Z,10.67
2018-12-25T09:20:25.342Z,10.63
2018-12-25T09:22:56.691Z,11.67
2018-12-25T09:25:27.981Z,12.03
2018-12-25T09:27:59.253Z,11.90
2018-12-25T09:30:30.585Z,12.43
2018-12-25T09:33:01.853Z,13.20
2018-12-25T09:35:33.116Z,12.17
2018-12-25T09:38:07.958Z,12.70
2018-12-25T09:40:39.176Z,12.47
2018-12-25T09:43:10.448Z,12.23
2018-12-25T09:45:41.634Z,12.13
2018-12-25T09:48:13.480Z,13.40
2018-12-25T09:50:44.989Z,11.13
2018-12-25T09:53:16.291Z,11.43
2018-12-25T09:55:47.442Z,12.40
2018-12-25T09:58:18.834Z,10.97
2018-12-25T10:00:50.121Z,11.90
2018-12-25T10:03:21.370Z,11.97
2018-12-25T10:05:52.552Z,11.67
2018-12-25T10:08:23.761Z,10.97
2018-12-25T10:10:55.097Z,11.13
2018-12-25T10:13:26.336Z,11.20
2018-12-25T10:15:57.654Z,10.07
2018-12-25T10:18:28.939Z,11.20
2018-12-25T10:21:00.293Z,10.73
2018-12-25T10:23:31.499Z,10.30
2018-12-25T10:26:02.788Z,10.30
2018-12-25T10:28:34.004Z,11.07
2018-12-25T10:31:05.332Z,10.50
2018-12-25T10:33:36.560Z,10.90
2018-12-25T10:36:07.819Z,11.00
2018-12-25T10:38:39.043Z,10.37
2018-12-25T10:41:10.246Z,10.33
2018-12-25T10:43:41.553Z,11.17
2018-12-25T10:46:12.800Z,11.50
2018-12-25T10:48:44.138Z,10.10
2018-12-25T10:51:15.391Z,10.90
2018-12-25T10:53:46.725Z,11.40
2018-12-25T10:56:18.123Z,10.80
2018-12-25T10:58:53.542Z,10.33
2018-12-25T11:01:36.289Z,10.03
2018-12-25T11:04:07.575Z,9.70
2018-12-25T11:06:38.811Z,10.03
2018-12-25T11:09:10.214Z,10.70
2018-12-25T11:11:41.359Z,9.30
2018-12-25T11:14:12.670Z,9.37
2018-12-25T11:16:44.063Z,8.17
2018-12-25T11:19:15.402Z,9.23
2018-12-25T11:21:46.776Z,9.63
2018-12-25T11:24:17.923Z,8.30
2018-12-25T11:26:49.210Z,9.37
2018-12-25T11:29:20.508Z,9.50
2018-12-25T11:31:51.787Z,9.17
2018-12-25T11:34:22.966Z,7.60
2018-12-25T11:36:54.202Z,8.40
2018-12-25T11:39:25.477Z,8.57
2018-12-25T11:41:56.745Z,7.73
2018-12-25T11:44:28.044Z,7.80
2018-12-25T11:46:59.234Z,7.87
2018-12-25T11:49:30.411Z,7.97
2018-12-25T11:52:01.716Z,8.07
2018-12-25T11:54:32.920Z,7.77
2018-12-25T11:57:04.307Z,7.03
2018-12-25T11:59:35.455Z,7.60
2018-12-25T12:02:06.886Z,6.50
2018-12-25T12:04:38.163Z,7.47
2018-12-25T12:07:09.427Z,8.30
2018-12-25T12:09:40.678Z,7.97
2018-12-25T12:12:12.036Z,8.60
2018-12-25T12:14:43.296Z,8.07
2018-12-25T12:17:17.697Z,8.10
2018-12-25T12:19:48.915Z,7.47
2018-12-25T12:22:20.061Z,8.17
2018-12-25T12:24:51.410Z,8.00
2018-12-25T12:27:22.785Z,8.53
2018-12-25T12:29:54.165Z,8.60
2018-12-25T12:32:25.378Z,8.00
2018-12-25T12:34:56.707Z,9.63
2018-12-25T12:37:27.939Z,8.20
2018-12-25T12:39:59.232Z,8.10
2018-12-25T12:42:30.498Z,9.67
2018-12-25T12:45:01.851Z,9.40
2018-12-25T12:47:33.138Z,11.37
2018-12-25T12:50:04.438Z,9.30
2018-12-25T12:52:35.713Z,9.07
2018-12-25T12:55:07.172Z,9.00
2018-12-25T12:57:39.929Z,10.90
2018-12-25T13:00:11.568Z,9.13
2018-12-25T13:02:42.901Z,10.90
2018-12-25T13:05:14.239Z,10.27
2018-12-25T13:07:45.489Z,10.47
2018-12-25T13:10:16.809Z,11.30
2018-12-25T13:12:48.024Z,11.67
2018-12-25T13:15:19.289Z,10.43
2018-12-25T13:17:50.581Z,10.33
2018-12-25T13:20:21.845Z,10.63
2018-12-25T13:22:54.180Z,10.90
2018-12-25T13:25:25.793Z,10.90
2018-12-25T13:27:57.118Z,11.33
2018-12-25T13:30:28.399Z,11.03
2018-12-25T13:32:59.687Z,10.27
2018-12-25T13:35:31.000Z,10.70
2018-12-25T13:38:02.158Z,10.07
2018-12-25T13:40:33.367Z,10.13
2018-12-25T13:43:04.731Z,11.77
2018-12-25T13:45:35.958Z,11.03
2018-12-25T13:48:07.235Z,11.27
2018-12-25T13:50:38.551Z,10.87
2018-12-25T13:53:09.769Z,9.03
2018-12-25T13:55:41.031Z,9.93
2018-12-25T13:58:12.218Z,9.70
2018-12-25T14:00:43.465Z,9.77
2018-12-25T14:03:14.753Z,10.63
2018-12-25T14:05:46.041Z,9.90
2018-12-25T14:08:17.257Z,10.10
2018-12-25T14:10:48.475Z,10.00
2018-12-25T14:13:19.738Z,10.57
2018-12-25T14:15:50.938Z,10.50
2018-12-25T14:18:22.317Z,11.07
2018-12-25T14:20:53.562Z,8.80
2018-12-25T14:23:24.781Z,9.70
2018-12-25T14:25:56.052Z,9.97
2018-12-25T14:28:27.256Z,9.37
2018-12-25T14:30:58.571Z,9.17
2018-12-25T14:33:29.891Z,7.80
2018-12-25T14:36:01.186Z,8.97
2018-12-25T14:38:32.461Z,8.97
2018-12-25T14:41:03.814Z,9.60
2018-12-25T14:43:35.066Z,8.27
2018-12-25T14:46:06.243Z,9.60
2018-12-25T14:48:37.473Z,10.53
2018-12-25T14:51:08.745Z,10.80
2018-12-25T14:53:40.011Z,9.20
2018-12-25T14:56:11.202Z,8.83
2018-12-25T14:58:42.373Z,10.40
2018-12-25T15:01:13.647Z,9.47
2018-12-25T15:03:44.888Z,8.20
2018-12-25T15:06:16.228Z,8.00
2018-12-25T15:08:47.474Z,9.10
2018-12-25T15:11:18.727Z,9.97
2018-12-25T15:13:50.034Z,9.23
2018-12-25T15:16:21.268Z,8.10
2018-12-25T15:18:52.528Z,8.10
2018-12-25T15:21:23.764Z,8.10
2018-12-25T15:23:54.993Z,7.47
2018-12-25T15:26:26.346Z,7.60
2018-12-25T15:28:57.579Z,7.57
2018-12-25T15:31:28.842Z,9.30
2018-12-25T15:34:00.079Z,7.03
2018-12-25T15:36:31.362Z,8.37
2018-12-25T15:39:02.656Z,8.60
2018-12-25T15:41:33.885Z,8.63
2018-12-25T15:44:05.155Z,8.40
2018-12-25T15:46:36.405Z,8.30
2018-12-25T15:49:07.632Z,9.23
2018-12-25T15:51:38.897Z,8.73
2018-12-25T15:54:10.025Z,9.60
2018-12-25T15:56:41.354Z,10.13
2018-12-25T15:59:12.516Z,8.87
2018-12-25T16:01:43.803Z,8.23
2018-12-25T16:04:15.171Z,10.83
2018-12-25T16:06:46.365Z,9.67
2018-12-25T16:09:17.573Z,8.77
2018-12-25T16:11:48.805Z,10.83
2018-12-25T16:14:20.109Z,11.90
2018-12-25T16:16:51.340Z,9.73
2018-12-25T16:19:22.652Z,11.30
2018-12-25T16:21:53.812Z,10.03
2018-12-25T16:24:27.583Z,9.70
2018-12-25T16:26:58.073Z,10.03
2018-12-25T16:29:30.836Z,11.40
2018-12-25T16:32:02.110Z,12.00
2018-12-25T16:34:33.412Z,11.40
2018-12-25T16:37:04.657Z,11.13
2018-12-25T16:39:35.950Z,10.87
2018-12-25T16:42:07.169Z,11.27
2018-12-25T16:44:38.466Z,9.30
2018-12-25T16:47:09.883Z,10.67
2018-12-25T16:49:41.192Z,9.87
2018-12-25T16:52:12.488Z,10.47
2018-12-25T16:54:43.796Z,10.30
2018-12-25T16:57:15.103Z,11.57
2018-12-25T16:59:46.457Z,10.60
2018-12-25T17:02:17.795Z,10.90
2018-12-25T17:04:49.222Z,11.37
2018-12-25T17:07:20.655Z,10.27
2018-12-25T17:09:51.993Z,9.57
2018-12-25T17:12:23.315Z,11.73
2018-12-25T17:14:56.234Z,10.70
2018-12-25T17:17:27.540Z,9.50
2018-12-25T17:19:59.007Z,11.00
2018-12-25T17:22:30.476Z,10.77
2018-12-25T17:25:01.753Z,10.70
2018-12-25T17:27:33.033Z,12.00
2018-12-25T17:30:04.484Z,10.87
2018-12-25T17:32:35.859Z,11.40
2018-12-25T17:35:07.132Z,10.60
2018-12-25T17:37:38.478Z,11.47
2018-12-25T17:40:09.946Z,10.40
2018-12-25T17:42:41.367Z,11.50
2018-12-25T17:45:12.598Z,10.53
2018-12-25T17:47:43.907Z,9.90
2018-12-25T17:50:15.163Z,10.67
2018-12-25T17:52:46.460Z,9.60
2018-12-25T17:55:17.642Z,10.03
2018-12-25T17:57:48.859Z,10.13
2018-12-25T18:00:20.178Z,10.17
2018-12-25T18:02:51.517Z,9.07
2018-12-25T18:05:22.892Z,9.83
2018-12-25T18:07:54.380Z,10.50
2018-12-25T18:10:25.819Z,9.37
2018-12-25T18:12:57.099Z,9.13
2018-12-25T18:15:28.530Z,10.07
2018-12-25T18:18:00.002Z,8.70
2018-12-25T18:20:31.376Z,8.80
2018-12-25T18:23:02.882Z,13.27
2018-12-25T18:25:34.334Z,11.60
2018-12-25T18:28:05.779Z,9.60
2018-12-25T18:30:37.167Z,8.43
2018-12-25T18:33:08.667Z,9.10
2018-12-25T18:35:40.027Z,8.93
2018-12-25T18:38:11.570Z,8.40
2018-12-25T18:40:43.120Z,10.00
2018-12-25T18:43:14.330Z,10.00
2018-12-25T18:45:45.653Z,9.30
2018-12-25T18:48:17.100Z,10.00
2018-12-25T18:50:48.312Z,9.73
2018-12-25T18:53:22.495Z,11.03
2018-12-25T18:55:56.518Z,9.30
2018-12-25T18:58:28.011Z,11.27
2018-12-25T19:00:59.580Z,10.77
2018-12-25T19:03:30.937Z,11.00
2018-12-25T19:06:02.122Z,10.10
2018-12-25T19:08:33.449Z,10.03
2018-12-25T19:11:04.760Z,10.97
2018-12-25T19:13:36.413Z,10.20
2018-12-25T19:16:08.554Z,10.73
2018-12-25T19:18:39.803Z,11.03
2018-12-25T19:21:11.126Z,10.43
2018-12-25T19:23:53.491Z,11.37
2018-12-25T19:26:24.856Z,11.50
2018-12-25T19:28:56.341Z,12.30
2018-12-25T19:31:27.666Z,12.00
2018-12-25T19:33:58.892Z,11.77
2018-12-25T19:36:30.284Z,10.40
2018-12-25T19:39:01.434Z,10.80
2018-12-25T19:41:32.727Z,11.70
2018-12-25T19:44:03.990Z,11.77
2018-12-25T19:46:35.310Z,11.40
2018-12-25T19:49:06.645Z,11.17
2018-12-25T19:51:37.889Z,10.07
2018-12-25T19:54:09.242Z,9.80
2018-12-25T19:56:40.497Z,11.63
2018-12-25T19:59:12.072Z,12.50
2018-12-25T20:01:43.258Z,11.80
2018-12-25T20:05:09.263Z,11.23
2018-12-25T20:08:47.976Z,10.53
2018-12-25T20:12:06.230Z,12.77
2018-12-25T20:15:34.430Z,14.40
2018-12-25T20:19:02.935Z,13.50
2018-12-25T20:22:33.282Z,12.23
2018-12-25T20:26:06.191Z,11.03
2018-12-25T20:29:27.594Z,12.60
2018-12-25T20:33:07.204Z,11.67
2018-12-25T20:39:08.999Z,11.93
2018-12-25T20:42:39.993Z,12.07
2018-12-25T20:46:16.632Z,11.20
2018-12-25T20:49:22.326Z,11.33
2018-12-25T20:53:10.472Z,12.30
2018-12-25T20:56:41.681Z,9.60
2018-12-25T21:00:21.342Z,11.47
2018-12-25T21:03:56.795Z,11.60
2018-12-25T21:07:23.799Z,11.80
2018-12-25T21:10:47.841Z,11.67
2018-12-25T21:14:24.485Z,11.90
2018-12-25T21:18:05.012Z,11.70
2018-12-25T21:21:38.668Z,12.50
2018-12-25T21:25:09.768Z,13.00
2018-12-25T21:27:34.218Z,11.93
2018-12-25T21:30:11.006Z,14.23
2018-12-25T21:32:44.455Z,13.60
2018-12-25T21:35:34.912Z,13.83
2018-12-25T21:38:06.770Z,14.97
2018-12-25T21:40:38.735Z,15.40
2018-12-25T21:43:10.421Z,15.23
2018-12-25T21:45:41.847Z,16.00
2018-12-25T21:48:13.558Z,14.87
2018-12-25T21:50:45.151Z,12.43
2018-12-25T21:53:16.523Z,15.13
2018-12-25T21:55:48.007Z,15.77
2018-12-25T21:58:19.839Z,15.73
2018-12-25T22:00:51.615Z,15.87
2018-12-25T22:03:23.141Z,15.83
2018-12-25T22:05:54.472Z,14.90
2018-12-25T22:08:25.829Z,15.37
2018-12-25T22:10:57.151Z,16.40
2018-12-25T22:13:28.434Z,14.93
2018-12-25T22:15:59.734Z,15.87
2018-12-25T22:18:31.029Z,17.13
2018-12-25T22:21:02.305Z,16.50
2018-12-25T22:23:33.660Z,16.67
2018-12-25T22:26:05.026Z,14.80
2018-12-25T22:28:36.531Z,16.67
2018-12-25T22:31:08.012Z,16.73
2018-12-25T22:33:39.362Z,18.80
2018-12-25T22:36:10.682Z,16.20
2018-12-25T22:38:42.055Z,15.77
2018-12-25T22:41:13.444Z,18.33
2018-12-25T22:43:44.713Z,15.87
2018-12-25T22:46:16.065Z,15.60
2018-12-25T22:48:47.452Z,16.07
2018-12-25T22:51:18.861Z,15.10
2018-12-25T22:53:50.235Z,17.47
2018-12-25T22:56:21.661Z,16.80
2018-12-25T22:58:52.993Z,16.67
2018-12-25T23:01:24.423Z,17.77
2018-12-25T23:03:55.805Z,17.90
2018-12-25T23:06:27.167Z,17.60
2018-12-25T23:08:58.450Z,17.43
2018-12-25T23:11:29.724Z,18.23
2018-12-25T23:14:01.143Z,18.77
2018-12-25T23:16:32.410Z,16.80
2018-12-25T23:19:03.752Z,16.30
2018-12-25T23:21:35.042Z,16.57
2018-12-25T23:24:06.395Z,17.60
2018-12-25T23:26:37.625Z,18.63
2018-12-25T23:29:08.981Z,17.80
2018-12-25T23:31:40.170Z,18.17
2018-12-25T23:34:11.455Z,17.30
2018-12-25T23:36:42.757Z,18.13
2018-12-25T23:39:14.152Z,19.20
2018-12-25T23:41:45.463Z,17.97
2018-12-25T23:44:16.649Z,18.07
2018-12-25T23:46:47.918Z,19.97
2018-12-25T23:49:19.161Z,19.67
2018-12-25T23:51:50.426Z,19.30
2018-12-25T23:54:21.702Z,19.10
2018-12-25T23:56:52.994Z,20.00
2018-12-25T23:59:24.245Z,20.17
